Time;durP1;ratioP1;P1;durP2;ratioP2;P2;SDS_P1;SDS_P2;PMS_P1;PMS_P2;Temp;Humidity;BMP_temperature;BMP_pressure;BME280_temperature;BME280_humidity;BME280_pressure;Samples;Min_cycle;Max_cycle;Signal;HPM_P1;HPM_P2
2023/12/17 00:01:43;;;;;;;25.48;15.48;;;;;;;;;;10157411;29;20496;-83
2023/12/17 00:06:45;;;;;;;27.13;15.00;;;;;;;;;;10163050;29;20455;-83
2023/12/17 00:11:49;;;;;;;23.88;14.88;;;;;;;;;;10166518;29;20512;-83
2023/12/17 00:16:51;;;;;;;24.17;15.63;;;;;;;;;;10154579;29;20981;-83
2023/12/17 00:21:54;;;;;;;27.48;14.98;;;;;;;;;;10155933;29;20421;-83
2023/12/17 00:26:57;;;;;;;20.33;14.50;;;;;;;;;;10156651;29;20427;-84
2023/12/17 00:32:00;;;;;;;23.80;14.73;;;;;;;;;;10152729;29;20493;-82
2023/12/17 00:37:02;;;;;;;21.70;14.47;;;;;;;;;;10155298;29;20500;-82
2023/12/17 00:42:06;;;;;;;23.15;14.68;;;;;;;;;;10154151;29;21053;-82
2023/12/17 00:47:08;;;;;;;22.45;14.60;;;;;;;;;;10156841;29;20419;-84
2023/12/17 00:52:11;;;;;;;22.33;14.70;;;;;;;;;;10154643;29;20931;-84
2023/12/17 00:57:15;;;;;;;23.52;13.77;;;;;;;;;;10152864;29;20451;-84
2023/12/17 01:02:17;;;;;;;22.75;13.85;;;;;;;;;;10151851;29;20451;-84
2023/12/17 01:07:19;;;;;;;21.45;13.60;;;;;;;;;;10151533;29;20427;-84
2023/12/17 01:12:23;;;;;;;22.67;14.30;;;;;;;;;;10153067;29;20469;-82
2023/12/17 01:17:25;;;;;;;19.80;12.68;;;;;;;;;;10148977;29;20429;-83
2023/12/17 01:22:27;;;;;;;22.67;12.90;;;;;;;;;;10152481;29;20529;-84
2023/12/17 01:27:31;;;;;;;22.42;12.77;;;;;;;;;;10149118;29;20506;-84
2023/12/17 01:32:33;;;;;;;19.90;11.68;;;;;;;;;;10146385;29;20981;-84
2023/12/17 01:37:36;;;;;;;21.10;11.80;;;;;;;;;;10155398;29;20447;-84
2023/12/17 01:42:39;;;;;;;20.03;11.43;;;;;;;;;;10151082;29;20883;-84
2023/12/17 01:47:42;;;;;;;19.88;11.15;;;;;;;;;;10151089;29;20422;-84
2023/12/17 01:52:44;;;;;;;15.63;10.57;;;;;;;;;;10157200;29;20463;-83
2023/12/17 01:57:48;;;;;;;17.75;10.50;;;;;;;;;;10161168;29;20467;-84
2023/12/17 02:02:51;;;;;;;17.45;11.05;;;;;;;;;;10166640;29;21182;-84
2023/12/17 02:07:53;;;;;;;18.20;10.63;;;;;;;;;;10164262;29;20423;-84
2023/12/17 02:12:59;;;;;;;16.27;11.37;;;;;;;;;;10162049;29;20546;-82
2023/12/17 02:18:01;;;;;;;17.77;10.38;;;;;;;;;;10153646;29;20457;-83
2023/12/17 02:23:05;;;;;;;17.63;10.73;;;;;;;;;;10166716;29;21210;-83
2023/12/17 02:28:07;;;;;;;14.38;10.45;;;;;;;;;;10162176;29;20473;-83
2023/12/17 02:33:10;;;;;;;14.27;9.73;;;;;;;;;;10157898;29;20463;-84
2023/12/17 02:38:14;;;;;;;17.45;10.75;;;;;;;;;;10160053;29;20460;-83
2023/12/17 02:43:16;;;;;;;17.23;10.20;;;;;;;;;;10144669;29;20464;-83
2023/12/17 02:48:18;;;;;;;16.35;10.18;;;;;;;;;;10150357;29;20450;-84
2023/12/17 02:53:22;;;;;;;14.32;9.85;;;;;;;;;;10158126;29;20959;-83
2023/12/17 02:58:24;;;;;;;16.70;9.80;;;;;;;;;;10146767;29;20424;-84
2023/12/17 03:03:27;;;;;;;14.82;8.70;;;;;;;;;;10143740;29;20754;-83
2023/12/17 03:08:30;;;;;;;12.30;8.60;;;;;;;;;;10166603;29;20482;-83
2023/12/17 03:13:33;;;;;;;14.48;8.50;;;;;;;;;;10159261;29;20469;-83
2023/12/17 03:18:35;;;;;;;12.63;8.05;;;;;;;;;;10158568;29;20810;-84
2023/12/17 03:23:39;;;;;;;12.43;8.18;;;;;;;;;;10162294;29;20926;-83
2023/12/17 03:28:41;;;;;;;15.15;8.95;;;;;;;;;;10155849;29;20433;-83
2023/12/17 03:33:45;;;;;;;14.53;9.27;;;;;;;;;;10162510;29;20467;-83
2023/12/17 03:38:48;;;;;;;13.95;9.20;;;;;;;;;;10157368;29;20481;-83
2023/12/17 03:43:52;;;;;;;13.77;8.80;;;;;;;;;;10154282;29;20479;-83
2023/12/17 03:48:54;;;;;;;13.10;8.98;;;;;;;;;;10158559;29;20672;-83
2023/12/17 03:53:58;;;;;;;16.63;10.02;;;;;;;;;;10155533;29;20463;-82
2023/12/17 03:59:00;;;;;;;15.90;9.83;;;;;;;;;;10157606;29;20886;-83
2023/12/17 04:04:03;;;;;;;13.85;8.30;;;;;;;;;;10155243;29;20423;-83
2023/12/17 04:09:07;;;;;;;12.47;8.23;;;;;;;;;;10161545;29;20514;-83
2023/12/17 04:14:09;;;;;;;16.08;8.88;;;;;;;;;;10154102;29;20501;-83
2023/12/17 04:19:11;;;;;;;13.20;8.00;;;;;;;;;;10158684;29;20454;-82
2023/12/17 04:24:15;;;;;;;13.23;8.45;;;;;;;;;;10159553;29;20459;-83
2023/12/17 04:29:18;;;;;;;13.65;8.95;;;;;;;;;;10159592;29;20419;-82
2023/12/17 04:34:20;;;;;;;15.60;9.10;;;;;;;;;;10158224;29;20464;-82
2023/12/17 04:39:24;;;;;;;13.87;9.07;;;;;;;;;;10158473;29;20529;-82
2023/12/17 04:44:26;;;;;;;14.35;8.82;;;;;;;;;;10145946;29;20950;-83
2023/12/17 04:49:29;;;;;;;14.98;8.93;;;;;;;;;;10151570;29;20424;-83
2023/12/17 04:54:32;;;;;;;14.45;8.93;;;;;;;;;;10161308;29;20499;-81
2023/12/17 04:59:35;;;;;;;12.05;8.18;;;;;;;;;;10155670;29;20477;-83
2023/12/17 05:04:37;;;;;;;12.20;8.00;;;;;;;;;;10160513;29;20449;-83
2023/12/17 05:09:41;;;;;;;13.23;8.10;;;;;;;;;;10160431;29;20484;-83
2023/12/17 05:14:43;;;;;;;11.73;7.63;;;;;;;;;;10156765;29;20548;-83
2023/12/17 05:19:45;;;;;;;13.55;8.68;;;;;;;;;;10156599;29;20425;-83
2023/12/17 05:24:49;;;;;;;13.03;8.30;;;;;;;;;;10165510;29;21008;-83
2023/12/17 05:29:52;;;;;;;11.52;7.97;;;;;;;;;;10161404;29;20416;-83
2023/12/17 05:34:54;;;;;;;13.15;8.15;;;;;;;;;;10161689;29;20852;-83
2023/12/17 05:39:58;;;;;;;12.67;8.67;;;;;;;;;;10157718;29;20902;-83
2023/12/17 05:45:00;;;;;;;13.70;8.05;;;;;;;;;;10161754;29;20441;-82
2023/12/17 05:50:04;;;;;;;11.95;7.65;;;;;;;;;;10153201;29;20465;-83
2023/12/17 05:55:08;;;;;;;12.43;7.72;;;;;;;;;;10163165;29;20505;-83
2023/12/17 06:00:12;;;;;;;12.13;7.85;;;;;;;;;;10158953;29;20420;-83
2023/12/17 06:05:14;;;;;;;12.13;7.60;;;;;;;;;;10160073;29;20572;-83
2023/12/17 06:10:18;;;;;;;14.52;7.75;;;;;;;;;;10165096;29;20769;-82
2023/12/17 06:15:20;;;;;;;13.68;7.88;;;;;;;;;;10155219;29;21036;-82
2023/12/17 06:20:25;;;;;;;16.02;7.82;;;;;;;;;;10160385;29;20459;-82
2023/12/17 06:25:28;;;;;;;13.15;7.45;;;;;;;;;;10156974;29;20520;-83
2023/12/17 06:30:32;;;;;;;12.52;7.38;;;;;;;;;;10153895;29;20447;-82
2023/12/17 06:35:35;;;;;;;11.95;7.30;;;;;;;;;;10143413;29;20823;-83
2023/12/17 06:40:38;;;;;;;14.30;7.40;;;;;;;;;;10147975;29;20449;-83
2023/12/17 06:45:41;;;;;;;11.27;7.50;;;;;;;;;;10144510;29;20414;-83
2023/12/17 06:50:43;;;;;;;12.63;7.20;;;;;;;;;;10146309;29;20453;-83
2023/12/17 06:55:47;;;;;;;12.00;7.60;;;;;;;;;;10157987;29;20997;-82
2023/12/17 07:00:49;;;;;;;11.65;7.38;;;;;;;;;;10156769;29;20455;-83
2023/12/17 07:05:52;;;;;;;14.10;9.43;;;;;;;;;;10160928;29;20491;-83
2023/12/17 07:10:55;;;;;;;13.27;8.40;;;;;;;;;;10159108;29;20909;-83
2023/12/17 07:15:58;;;;;;;16.80;11.27;;;;;;;;;;10160383;29;20536;-83
2023/12/17 07:21:00;;;;;;;14.52;9.38;;;;;;;;;;10156709;29;20455;-83
2023/12/17 07:26:04;;;;;;;14.43;9.07;;;;;;;;;;10160321;29;20921;-83
2023/12/17 07:31:07;;;;;;;12.52;9.13;;;;;;;;;;10157520;29;20421;-82
2023/12/17 07:36:10;;;;;;;12.35;8.38;;;;;;;;;;10155149;29;20463;-83
2023/12/17 07:41:14;;;;;;;11.35;8.07;;;;;;;;;;10155313;29;20904;-83
2023/12/17 07:46:16;;;;;;;12.15;8.18;;;;;;;;;;10155002;29;20962;-82
2023/12/17 07:51:18;;;;;;;12.90;7.75;;;;;;;;;;10160502;29;20890;-83
2023/12/17 07:56:23;;;;;;;13.77;7.85;;;;;;;;;;10154613;29;20468;-82
2023/12/17 08:01:29;;;;;;;15.48;8.95;;;;;;;;;;10160630;29;20409;-82
2023/12/17 08:06:31;;;;;;;18.48;9.10;;;;;;;;;;10158462;29;20411;-83
2023/12/17 08:11:35;;;;;;;30.50;16.77;;;;;;;;;;10157178;29;20454;-82
2023/12/17 08:16:37;;;;;;;14.83;8.47;;;;;;;;;;10155078;29;20497;-83
2023/12/17 08:21:40;;;;;;;14.30;9.13;;;;;;;;;;10160096;29;20417;-83
2023/12/17 08:26:43;;;;;;;20.60;11.73;;;;;;;;;;10154711;29;20507;-82
2023/12/17 08:31:46;;;;;;;12.88;8.32;;;;;;;;;;10156919;29;20415;-83
2023/12/17 08:36:48;;;;;;;15.27;10.25;;;;;;;;;;10151868;29;20496;-83
2023/12/17 08:41:52;;;;;;;16.95;11.27;;;;;;;;;;10150864;29;20968;-83
2023/12/17 08:46:55;;;;;;;23.45;15.00;;;;;;;;;;10149586;29;20837;-82
2023/12/17 08:51:57;;;;;;;15.20;11.35;;;;;;;;;;10150903;29;20873;-83
2023/12/17 08:57:01;;;;;;;15.27;10.57;;;;;;;;;;10143412;29;20468;-83
2023/12/17 09:02:04;;;;;;;16.48;10.63;;;;;;;;;;10160878;29;20446;-83
2023/12/17 09:07:06;;;;;;;18.83;11.47;;;;;;;;;;10152454;29;20445;-84
2023/12/17 09:12:10;;;;;;;17.42;11.20;;;;;;;;;;10165949;29;20849;-82
2023/12/17 09:17:12;;;;;;;19.35;11.48;;;;;;;;;;10149567;29;20476;-82
2023/12/17 09:22:15;;;;;;;14.65;9.50;;;;;;;;;;10154188;29;20485;-82
2023/12/17 09:27:19;;;;;;;12.40;9.05;;;;;;;;;;10160980;29;20466;-82
2023/12/17 09:32:21;;;;;;;12.32;7.65;;;;;;;;;;10144454;29;21061;-82
2023/12/17 09:37:24;;;;;;;9.50;6.65;;;;;;;;;;10141860;29;20481;-82
2023/12/17 09:42:28;;;;;;;7.27;5.90;;;;;;;;;;10144213;29;20552;-83
2023/12/17 09:47:30;;;;;;;8.70;5.60;;;;;;;;;;10138680;29;20471;-83
2023/12/17 09:52:38;;;;;;;8.37;5.10;;;;;;;;;;10139875;29;20461;-82
2023/12/17 09:57:43;;;;;;;7.95;4.75;;;;;;;;;;10152860;29;20463;-84
2023/12/17 10:02:45;;;;;;;7.18;4.47;;;;;;;;;;10153910;29;20471;-83
2023/12/17 10:07:48;;;;;;;9.00;5.20;;;;;;;;;;10146289;29;21038;-83
2023/12/17 10:12:51;;;;;;;7.97;4.60;;;;;;;;;;10151595;29;20466;-83
2023/12/17 10:17:54;;;;;;;6.15;4.53;;;;;;;;;;10151466;29;20601;-84
2023/12/17 10:22:58;;;;;;;7.75;4.82;;;;;;;;;;10158029;29;20411;-83
2023/12/17 10:28:02;;;;;;;8.60;5.05;;;;;;;;;;10154617;29;20557;-83
2023/12/17 10:33:05;;;;;;;8.90;5.30;;;;;;;;;;10150007;29;20447;-82
2023/12/17 10:38:09;;;;;;;8.65;4.78;;;;;;;;;;10132674;29;20828;-83
2023/12/17 10:43:15;;;;;;;8.88;5.20;;;;;;;;;;10145560;29;20511;-84
2023/12/17 10:48:19;;;;;;;9.27;5.38;;;;;;;;;;10157446;29;20479;-84
2023/12/17 10:53:21;;;;;;;8.00;4.80;;;;;;;;;;10154208;29;20459;-84
2023/12/17 10:58:26;;;;;;;8.27;4.90;;;;;;;;;;10156572;29;20501;-83
2023/12/17 11:03:29;;;;;;;8.27;5.10;;;;;;;;;;10158421;29;20455;-84
2023/12/17 11:08:31;;;;;;;7.57;4.83;;;;;;;;;;10158218;29;20535;-83
2023/12/17 11:13:36;;;;;;;7.22;5.10;;;;;;;;;;10157701;29;20431;-84
2023/12/17 11:18:42;;;;;;;6.50;4.60;;;;;;;;;;10156279;29;20467;-84
2023/12/17 11:23:47;;;;;;;6.82;4.55;;;;;;;;;;10162288;29;20477;-83
2023/12/17 11:28:52;;;;;;;8.17;5.20;;;;;;;;;;10157647;29;20977;-84
2023/12/17 11:33:55;;;;;;;9.18;4.95;;;;;;;;;;10158713;29;20507;-84
2023/12/17 11:38:58;;;;;;;9.37;5.73;;;;;;;;;;10146457;29;20552;-83
2023/12/17 11:44:01;;;;;;;9.27;6.80;;;;;;;;;;10149477;29;20922;-84
2023/12/17 11:49:04;;;;;;;9.85;6.50;;;;;;;;;;10147675;29;20509;-84
2023/12/17 11:54:06;;;;;;;12.30;8.27;;;;;;;;;;10152063;29;20445;-84
2023/12/17 11:59:10;;;;;;;10.17;5.93;;;;;;;;;;10142102;29;20479;-84
2023/12/17 12:04:12;;;;;;;8.20;6.07;;;;;;;;;;10135220;29;20437;-83
2023/12/17 12:09:19;;;;;;;8.90;6.60;;;;;;;;;;10152576;29;20453;-84
2023/12/17 12:14:23;;;;;;;8.70;6.38;;;;;;;;;;10155518;29;20448;-84
2023/12/17 12:19:25;;;;;;;10.30;6.85;;;;;;;;;;10157372;29;20497;-84
2023/12/17 12:24:28;;;;;;;11.95;6.53;;;;;;;;;;10153060;29;20419;-84
2023/12/17 12:29:38;;;;;;;10.18;7.03;;;;;;;;;;10154929;29;20405;-84
2023/12/17 12:34:45;;;;;;;9.43;6.50;;;;;;;;;;10154346;29;20418;-83
2023/12/17 12:39:47;;;;;;;10.87;6.70;;;;;;;;;;10154230;29;20520;-83
2023/12/17 12:44:51;;;;;;;10.55;7.13;;;;;;;;;;10151561;29;20558;-84
2023/12/17 12:49:53;;;;;;;10.15;6.18;;;;;;;;;;10140879;29;20929;-85
2023/12/17 12:54:56;;;;;;;10.45;6.65;;;;;;;;;;10144087;29;21000;-83
2023/12/17 12:59:59;;;;;;;10.30;6.70;;;;;;;;;;10135579;29;20488;-83
2023/12/17 13:05:02;;;;;;;11.00;6.30;;;;;;;;;;10145298;29;20425;-83
2023/12/17 13:10:05;;;;;;;8.90;5.70;;;;;;;;;;10148848;29;20924;-83
2023/12/17 13:15:10;;;;;;;8.45;6.03;;;;;;;;;;10899066;23;20427;-84
2023/12/17 13:30:54;;;;;;;9.77;6.72;;;;;;;;;;10214849;29;20479;-83
2023/12/17 13:41:40;;;;;;;9.07;6.88;;;;;;;;;;12057688;23;21733;-80
2023/12/17 13:52:22;;;;;;;9.77;6.80;;;;;;;;;;10176288;29;20440;-83
2023/12/17 13:57:24;;;;;;;14.30;9.93;;;;;;;;;;10190306;29;20533;-84
2023/12/17 14:02:28;;;;;;;10.25;7.95;;;;;;;;;;10197396;29;20439;-83
2023/12/17 14:07:32;;;;;;;11.20;7.90;;;;;;;;;;10190081;29;20446;-85
2023/12/17 14:12:34;;;;;;;11.90;8.20;;;;;;;;;;10195432;29;20900;-82
2023/12/17 14:17:36;;;;;;;11.20;8.25;;;;;;;;;;10186461;29;20471;-84
2023/12/17 14:22:40;;;;;;;11.75;9.05;;;;;;;;;;10202116;29;20449;-84
2023/12/17 14:27:44;;;;;;;66.78;38.20;;;;;;;;;;10182663;29;20499;-84
2023/12/17 14:32:46;;;;;;;11.90;8.35;;;;;;;;;;10193091;29;20508;-83
2023/12/17 14:37:50;;;;;;;12.43;8.20;;;;;;;;;;10186192;29;20469;-83
2023/12/17 14:42:52;;;;;;;21.40;14.07;;;;;;;;;;10191480;29;20431;-84
2023/12/17 14:47:55;;;;;;;31.15;18.60;;;;;;;;;;10192052;29;20463;-83
2023/12/17 14:52:58;;;;;;;23.77;12.70;;;;;;;;;;10194270;29;20694;-82
2023/12/17 14:58:03;;;;;;;15.32;9.77;;;;;;;;;;10185120;29;20534;-83
2023/12/17 15:03:05;;;;;;;12.93;9.13;;;;;;;;;;10187530;29;21126;-83
2023/12/17 15:08:09;;;;;;;14.18;9.10;;;;;;;;;;10180978;29;20454;-83
2023/12/17 15:13:11;;;;;;;14.30;9.53;;;;;;;;;;10186824;29;20444;-82
2023/12/17 15:18:14;;;;;;;17.47;9.47;;;;;;;;;;10171015;29;20905;-84
2023/12/17 15:23:18;;;;;;;13.23;10.02;;;;;;;;;;10187493;29;20455;-84
2023/12/17 15:28:21;;;;;;;15.02;10.10;;;;;;;;;;10188495;29;20499;-84
2023/12/17 15:33:23;;;;;;;20.00;12.20;;;;;;;;;;10187613;29;20518;-84
2023/12/17 15:38:27;;;;;;;16.37;10.50;;;;;;;;;;10190337;29;21003;-84
2023/12/17 15:43:29;;;;;;;18.02;10.57;;;;;;;;;;10187624;29;20796;-82
2023/12/17 15:48:32;;;;;;;29.27;16.30;;;;;;;;;;10186686;29;20439;-82
2023/12/17 15:53:38;;;;;;;21.53;13.60;;;;;;;;;;10200371;28;20802;-81
2023/12/17 15:58:40;;;;;;;26.10;16.87;;;;;;;;;;10193278;29;20554;-83
2023/12/17 16:03:42;;;;;;;25.97;15.40;;;;;;;;;;10184509;29;20450;-81
2023/12/17 16:08:46;;;;;;;25.60;16.67;;;;;;;;;;10188464;28;20477;-82
2023/12/17 16:13:48;;;;;;;31.67;17.60;;;;;;;;;;10183224;29;20493;-83
2023/12/17 16:18:51;;;;;;;30.63;17.47;;;;;;;;;;10176634;29;20559;-82
2023/12/17 16:23:54;;;;;;;31.48;18.48;;;;;;;;;;10185424;29;20511;-82
2023/12/17 16:28:59;;;;;;;28.00;17.17;;;;;;;;;;10188961;29;20472;-83
2023/12/17 16:34:03;;;;;;;39.38;23.60;;;;;;;;;;10188070;29;20495;-82
2023/12/17 16:39:06;;;;;;;34.55;20.08;;;;;;;;;;10196071;28;20467;-82
2023/12/17 16:44:09;;;;;;;42.72;23.75;;;;;;;;;;10185532;29;20504;-82
2023/12/17 16:49:11;;;;;;;28.80;18.10;;;;;;;;;;10188238;29;20457;-82
2023/12/17 16:54:15;;;;;;;29.90;18.15;;;;;;;;;;10195585;29;20440;-82
2023/12/17 16:59:17;;;;;;;31.65;17.77;;;;;;;;;;10182840;29;20451;-86
2023/12/17 17:04:19;;;;;;;40.10;23.90;;;;;;;;;;10189910;29;20431;-84
2023/12/17 17:09:23;;;;;;;38.93;20.60;;;;;;;;;;10183787;29;20595;-88
2023/12/17 17:14:26;;;;;;;42.65;21.02;;;;;;;;;;10182491;29;20412;-88
2023/12/17 17:19:28;;;;;;;40.60;22.03;;;;;;;;;;10197524;28;20500;-90
2023/12/17 17:24:32;;;;;;;36.10;20.42;;;;;;;;;;10229522;28;20421;-96
2023/12/17 17:29:35;;;;;;;37.90;21.57;;;;;;;;;;10253105;29;20405;-95
2023/12/17 17:34:37;;;;;;;33.07;19.97;;;;;;;;;;10202990;29;20496;-96
2023/12/17 17:39:41;;;;;;;32.38;19.63;;;;;;;;;;10220774;29;20665;-96
2023/12/17 17:44:43;;;;;;;38.07;22.93;;;;;;;;;;10217564;29;20500;-94
2023/12/17 17:49:47;;;;;;;52.58;26.98;;;;;;;;;;10204469;29;20456;-95
2023/12/17 17:54:50;;;;;;;38.45;23.20;;;;;;;;;;10208797;29;20456;-84
2023/12/17 17:59:53;;;;;;;37.38;23.83;;;;;;;;;;10192974;28;20443;-94
2023/12/17 18:04:56;;;;;;;39.85;24.55;;;;;;;;;;10198214;28;20500;-84
2023/12/17 18:10:00;;;;;;;38.90;23.45;;;;;;;;;;10197478;29;20448;-82
2023/12/17 18:15:02;;;;;;;35.33;21.88;;;;;;;;;;10185374;29;20517;-82
2023/12/17 18:20:05;;;;;;;33.58;22.02;;;;;;;;;;10189160;29;20470;-83
2023/12/17 18:25:10;;;;;;;34.17;22.60;;;;;;;;;;10171625;29;20565;-83
2023/12/17 18:30:14;;;;;;;36.85;23.63;;;;;;;;;;10178322;29;20542;-82
2023/12/17 18:35:16;;;;;;;33.88;23.13;;;;;;;;;;10174045;29;20447;-82
2023/12/17 18:40:20;;;;;;;54.88;29.83;;;;;;;;;;10190284;28;20467;-82
2023/12/17 18:45:22;;;;;;;39.97;26.60;;;;;;;;;;10193690;29;20633;-82
2023/12/17 18:50:25;;;;;;;39.30;25.13;;;;;;;;;;10192985;29;20513;-82
2023/12/17 18:55:30;;;;;;;39.17;25.20;;;;;;;;;;10195588;29;20456;-81
2023/12/17 19:00:32;;;;;;;42.60;26.85;;;;;;;;;;10181214;29;20506;-82
2023/12/17 19:05:37;;;;;;;49.85;29.73;;;;;;;;;;10188392;28;20470;-82
2023/12/17 19:10:40;;;;;;;48.45;29.95;;;;;;;;;;10183068;29;20468;-83
2023/12/17 19:15:44;;;;;;;46.03;29.10;;;;;;;;;;10196545;29;20481;-82
2023/12/17 19:20:47;;;;;;;45.75;29.95;;;;;;;;;;10185284;29;20474;-82
2023/12/17 19:25:51;;;;;;;52.75;32.88;;;;;;;;;;10178248;29;20521;-81
2023/12/17 19:30:53;;;;;;;57.70;34.20;;;;;;;;;;10177102;29;20945;-83
2023/12/17 19:35:57;;;;;;;53.65;33.65;;;;;;;;;;10186009;29;20465;-83
2023/12/17 19:41:00;;;;;;;68.80;41.22;;;;;;;;;;10192463;29;20499;-83
2023/12/17 19:46:03;;;;;;;67.33;38.57;;;;;;;;;;10186762;29;20478;-82
2023/12/17 19:51:05;;;;;;;52.58;32.15;;;;;;;;;;10178295;29;20491;-82
2023/12/17 19:56:15;;;;;;;52.60;32.53;;;;;;;;;;10185480;29;21176;-82
2023/12/17 20:01:18;;;;;;;53.53;32.95;;;;;;;;;;10186770;28;20467;-81
2023/12/17 20:06:21;;;;;;;52.57;32.47;;;;;;;;;;10185223;29;20441;-81
2023/12/17 20:11:25;;;;;;;52.17;31.45;;;;;;;;;;10179688;29;20518;-81
2023/12/17 20:16:27;;;;;;;44.93;29.57;;;;;;;;;;10194652;28;20450;-80
2023/12/17 20:21:30;;;;;;;44.15;28.30;;;;;;;;;;10181135;29;20488;-81
2023/12/17 20:26:34;;;;;;;41.75;28.02;;;;;;;;;;10182798;29;20453;-81
2023/12/17 20:31:37;;;;;;;45.90;29.83;;;;;;;;;;10192346;29;20433;-81
2023/12/17 20:36:41;;;;;;;47.70;29.92;;;;;;;;;;10174715;29;21167;-82
2023/12/17 20:41:45;;;;;;;51.20;32.70;;;;;;;;;;10180637;29;21034;-83
2023/12/17 20:46:48;;;;;;;53.80;34.47;;;;;;;;;;10179226;29;20571;-82
2023/12/17 20:51:50;;;;;;;55.53;33.07;;;;;;;;;;10190317;29;20623;-81
2023/12/17 20:56:55;;;;;;;50.25;30.35;;;;;;;;;;10196449;28;20665;-82
2023/12/17 21:01:58;;;;;;;49.10;31.33;;;;;;;;;;10179348;29;20558;-83
2023/12/17 21:07:00;;;;;;;48.25;30.85;;;;;;;;;;10187208;29;20467;-82
2023/12/17 21:12:04;;;;;;;46.70;29.23;;;;;;;;;;10177421;29;20484;-80
2023/12/17 21:17:06;;;;;;;50.80;31.57;;;;;;;;;;10182469;29;20553;-82
2023/12/17 21:22:09;;;;;;;54.15;32.15;;;;;;;;;;10179188;29;20888;-83
2023/12/17 21:27:21;;;;;;;48.00;30.90;;;;;;;;;;10179525;29;20518;-82
2023/12/17 21:32:24;;;;;;;50.45;30.17;;;;;;;;;;10185130;29;25116;-82
2023/12/17 21:37:28;;;;;;;48.83;31.20;;;;;;;;;;10185240;29;20480;-81
2023/12/17 21:42:32;;;;;;;56.03;36.05;;;;;;;;;;10182212;29;20465;-83
2023/12/17 21:47:34;;;;;;;71.75;41.95;;;;;;;;;;10181749;29;20518;-82
2023/12/17 21:52:36;;;;;;;67.45;41.00;;;;;;;;;;10179444;29;20509;-82
2023/12/17 21:57:40;;;;;;;54.80;35.73;;;;;;;;;;10188151;29;20940;-81
2023/12/17 22:02:42;;;;;;;63.63;38.03;;;;;;;;;;10185306;29;20548;-80
2023/12/17 22:07:45;;;;;;;64.90;38.60;;;;;;;;;;10190159;29;20975;-81
2023/12/17 22:12:48;;;;;;;69.32;43.47;;;;;;;;;;10189813;29;20524;-82
2023/12/17 22:17:51;;;;;;;64.53;39.45;;;;;;;;;;10189956;29;20501;-81
2023/12/17 22:22:53;;;;;;;59.85;37.95;;;;;;;;;;10183869;29;20467;-81
2023/12/17 22:27:57;;;;;;;59.55;36.60;;;;;;;;;;10179412;29;20509;-82
2023/12/17 22:32:59;;;;;;;60.25;37.42;;;;;;;;;;10193356;29;20471;-82
2023/12/17 22:38:02;;;;;;;57.88;35.50;;;;;;;;;;10191732;29;20938;-82
2023/12/17 22:43:07;;;;;;;55.70;34.13;;;;;;;;;;10191740;29;20724;-82
2023/12/17 22:48:11;;;;;;;58.88;34.83;;;;;;;;;;10176470;29;21017;-82
2023/12/17 22:53:14;;;;;;;51.70;33.27;;;;;;;;;;10187965;29;22028;-81
2023/12/17 22:58:18;;;;;;;56.90;36.90;;;;;;;;;;10195106;29;20956;-82
2023/12/17 23:03:20;;;;;;;63.50;38.08;;;;;;;;;;10195588;29;20437;-81
2023/12/17 23:08:22;;;;;;;62.90;39.72;;;;;;;;;;10198779;29;20436;-81
2023/12/17 23:13:26;;;;;;;56.90;38.90;;;;;;;;;;10194014;29;20493;-82
2023/12/17 23:18:29;;;;;;;62.88;39.15;;;;;;;;;;10201798;29;20856;-81
2023/12/17 23:23:31;;;;;;;61.97;39.63;;;;;;;;;;10196526;29;20521;-81
2023/12/17 23:28:35;;;;;;;58.75;38.30;;;;;;;;;;10198893;29;20473;-82
2023/12/17 23:33:37;;;;;;;62.42;39.47;;;;;;;;;;10194065;29;21069;-81
2023/12/17 23:38:39;;;;;;;62.42;39.10;;;;;;;;;;10191451;29;20499;-82
2023/12/17 23:43:43;;;;;;;57.03;37.00;;;;;;;;;;10210658;29;20441;-81
2023/12/17 23:48:46;;;;;;;58.05;36.53;;;;;;;;;;10190924;29;20435;-81
2023/12/17 23:53:48;;;;;;;54.33;34.97;;;;;;;;;;10196677;29;20455;-80
2023/12/17 23:58:52;;;;;;;53.92;34.75;;;;;;;;;;10201540;28;20505;-80
